sensor_id;sensor_type;location;lat;lon;timestamp;P1;durP1;ratioP1;P2;durP2;ratioP2
20181;SDS011;10250;50.756;6.172;2023-09-18T00:00:31;15.43;;;4.00;;
20181;SDS011;10250;50.756;6.172;2023-09-18T00:02:35;15.50;;;3.87;;
20181;SDS011;10250;50.756;6.172;2023-09-18T00:04:35;13.97;;;4.30;;
20181;SDS011;10250;50.756;6.172;2023-09-18T00:06:36;14.50;;;3.80;;
20181;SDS011;10250;50.756;6.172;2023-09-18T00:08:38;13.50;;;3.70;;
20181;SDS011;10250;50.756;6.172;2023-09-18T00:10:39;15.83;;;4.10;;
20181;SDS011;10250;50.756;6.172;2023-09-18T00:12:40;11.27;;;3.80;;
20181;SDS011;10250;50.756;6.172;2023-09-18T00:14:40;20.30;;;4.13;;
20181;SDS011;10250;50.756;6.172;2023-09-18T00:16:41;15.63;;;4.20;;
20181;SDS011;10250;50.756;6.172;2023-09-18T00:18:42;14.30;;;4.20;;
20181;SDS011;10250;50.756;6.172;2023-09-18T00:20:44;16.97;;;4.17;;
20181;SDS011;10250;50.756;6.172;2023-09-18T00:22:49;16.63;;;4.30;;
20181;SDS011;10250;50.756;6.172;2023-09-18T00:24:49;15.00;;;4.10;;
20181;SDS011;10250;50.756;6.172;2023-09-18T00:26:50;17.17;;;4.23;;
20181;SDS011;10250;50.756;6.172;2023-09-18T00:28:52;14.10;;;3.70;;
20181;SDS011;10250;50.756;6.172;2023-09-18T00:30:53;13.97;;;4.10;;
20181;SDS011;10250;50.756;6.172;2023-09-18T00:32:53;14.80;;;4.03;;
20181;SDS011;10250;50.756;6.172;2023-09-18T00:34:54;17.33;;;4.43;;
20181;SDS011;10250;50.756;6.172;2023-09-18T00:36:55;17.43;;;4.10;;
20181;SDS011;10250;50.756;6.172;2023-09-18T00:38:55;18.27;;;4.60;;
20181;SDS011;10250;50.756;6.172;2023-09-18T00:40:56;15.50;;;3.70;;
20181;SDS011;10250;50.756;6.172;2023-09-18T00:42:56;15.47;;;4.53;;
20181;SDS011;10250;50.756;6.172;2023-09-18T00:44:57;19.33;;;4.07;;
20181;SDS011;10250;50.756;6.172;2023-09-18T00:46:58;14.87;;;4.50;;
20181;SDS011;10250;50.756;6.172;2023-09-18T00:48:58;16.30;;;4.27;;
20181;SDS011;10250;50.756;6.172;2023-09-18T00:50:59;16.80;;;3.83;;
20181;SDS011;10250;50.756;6.172;2023-09-18T00:53:00;16.20;;;4.07;;
20181;SDS011;10250;50.756;6.172;2023-09-18T00:55:02;12.37;;;3.73;;
20181;SDS011;10250;50.756;6.172;2023-09-18T00:57:03;14.73;;;4.10;;
20181;SDS011;10250;50.756;6.172;2023-09-18T00:59:04;17.50;;;3.90;;
20181;SDS011;10250;50.756;6.172;2023-09-18T01:01:05;16.90;;;4.57;;
20181;SDS011;10250;50.756;6.172;2023-09-18T01:03:05;13.73;;;4.00;;
20181;SDS011;10250;50.756;6.172;2023-09-18T01:05:06;12.80;;;4.33;;
20181;SDS011;10250;50.756;6.172;2023-09-18T01:07:06;15.70;;;3.93;;
20181;SDS011;10250;50.756;6.172;2023-09-18T01:09:07;15.80;;;4.47;;
20181;SDS011;10250;50.756;6.172;2023-09-18T01:13:28;18.07;;;4.90;;
20181;SDS011;10250;50.756;6.172;2023-09-18T01:15:37;18.87;;;4.70;;
20181;SDS011;10250;50.756;6.172;2023-09-18T01:17:45;17.33;;;4.37;;
20181;SDS011;10250;50.756;6.172;2023-09-18T01:19:46;14.13;;;4.50;;
20181;SDS011;10250;50.756;6.172;2023-09-18T01:21:47;17.30;;;4.67;;
20181;SDS011;10250;50.756;6.172;2023-09-18T01:23:48;17.27;;;5.00;;
20181;SDS011;10250;50.756;6.172;2023-09-18T01:25:49;13.53;;;3.77;;
20181;SDS011;10250;50.756;6.172;2023-09-18T01:27:50;17.67;;;4.33;;
20181;SDS011;10250;50.756;6.172;2023-09-18T01:29:51;15.23;;;4.33;;
20181;SDS011;10250;50.756;6.172;2023-09-18T01:31:53;17.53;;;4.40;;
20181;SDS011;10250;50.756;6.172;2023-09-18T01:33:54;13.43;;;3.87;;
20181;SDS011;10250;50.756;6.172;2023-09-18T01:35:56;17.20;;;4.73;;
20181;SDS011;10250;50.756;6.172;2023-09-18T01:37:59;15.90;;;4.00;;
20181;SDS011;10250;50.756;6.172;2023-09-18T01:40:01;20.80;;;4.53;;
20181;SDS011;10250;50.756;6.172;2023-09-18T01:42:06;18.67;;;4.57;;
20181;SDS011;10250;50.756;6.172;2023-09-18T01:44:09;11.90;;;3.80;;
20181;SDS011;10250;50.756;6.172;2023-09-18T01:46:10;16.70;;;4.77;;
20181;SDS011;10250;50.756;6.172;2023-09-18T01:48:11;14.53;;;4.60;;
20181;SDS011;10250;50.756;6.172;2023-09-18T01:50:11;17.27;;;4.40;;
20181;SDS011;10250;50.756;6.172;2023-09-18T01:52:13;15.27;;;4.13;;
20181;SDS011;10250;50.756;6.172;2023-09-18T01:54:13;14.90;;;3.87;;
20181;SDS011;10250;50.756;6.172;2023-09-18T01:56:14;15.03;;;4.30;;
20181;SDS011;10250;50.756;6.172;2023-09-18T01:58:14;17.70;;;3.67;;
20181;SDS011;10250;50.756;6.172;2023-09-18T02:00:15;13.77;;;3.80;;
20181;SDS011;10250;50.756;6.172;2023-09-18T02:02:16;16.30;;;3.57;;
20181;SDS011;10250;50.756;6.172;2023-09-18T02:04:17;14.27;;;3.80;;
20181;SDS011;10250;50.756;6.172;2023-09-18T02:06:18;11.87;;;3.30;;
20181;SDS011;10250;50.756;6.172;2023-09-18T02:08:18;12.33;;;3.13;;
20181;SDS011;10250;50.756;6.172;2023-09-18T02:10:19;12.70;;;3.13;;
20181;SDS011;10250;50.756;6.172;2023-09-18T02:12:19;16.50;;;3.23;;
20181;SDS011;10250;50.756;6.172;2023-09-18T02:14:20;12.33;;;3.40;;
20181;SDS011;10250;50.756;6.172;2023-09-18T02:16:21;15.27;;;3.40;;
20181;SDS011;10250;50.756;6.172;2023-09-18T02:18:24;13.00;;;3.40;;
20181;SDS011;10250;50.756;6.172;2023-09-18T02:20:24;12.90;;;3.33;;
20181;SDS011;10250;50.756;6.172;2023-09-18T02:22:25;12.50;;;2.40;;
20181;SDS011;10250;50.756;6.172;2023-09-18T02:24:25;14.37;;;3.07;;
20181;SDS011;10250;50.756;6.172;2023-09-18T02:26:26;14.90;;;3.70;;
20181;SDS011;10250;50.756;6.172;2023-09-18T02:28:27;12.77;;;3.37;;
20181;SDS011;10250;50.756;6.172;2023-09-18T02:30:27;11.70;;;3.37;;
20181;SDS011;10250;50.756;6.172;2023-09-18T02:32:28;12.30;;;2.77;;
20181;SDS011;10250;50.756;6.172;2023-09-18T02:34:29;12.27;;;3.63;;
20181;SDS011;10250;50.756;6.172;2023-09-18T02:36:30;12.90;;;2.70;;
20181;SDS011;10250;50.756;6.172;2023-09-18T02:38:31;11.23;;;2.83;;
20181;SDS011;10250;50.756;6.172;2023-09-18T02:40:33;11.30;;;2.97;;
20181;SDS011;10250;50.756;6.172;2023-09-18T02:42:33;9.67;;;2.50;;
20181;SDS011;10250;50.756;6.172;2023-09-18T02:44:34;9.87;;;2.60;;
20181;SDS011;10250;50.756;6.172;2023-09-18T02:46:34;10.07;;;2.43;;
20181;SDS011;10250;50.756;6.172;2023-09-18T02:48:36;8.97;;;2.50;;
20181;SDS011;10250;50.756;6.172;2023-09-18T02:50:37;11.60;;;2.50;;
20181;SDS011;10250;50.756;6.172;2023-09-18T02:52:38;12.47;;;2.67;;
20181;SDS011;10250;50.756;6.172;2023-09-18T02:54:38;13.33;;;2.70;;
20181;SDS011;10250;50.756;6.172;2023-09-18T02:56:39;10.67;;;2.50;;
20181;SDS011;10250;50.756;6.172;2023-09-18T02:58:39;10.63;;;2.80;;
20181;SDS011;10250;50.756;6.172;2023-09-18T03:00:40;11.03;;;3.40;;
20181;SDS011;10250;50.756;6.172;2023-09-18T03:02:43;13.73;;;2.80;;
20181;SDS011;10250;50.756;6.172;2023-09-18T03:04:43;11.03;;;2.73;;
20181;SDS011;10250;50.756;6.172;2023-09-18T03:06:44;11.50;;;2.77;;
20181;SDS011;10250;50.756;6.172;2023-09-18T03:08:45;15.00;;;2.60;;
20181;SDS011;10250;50.756;6.172;2023-09-18T03:10:45;11.30;;;2.57;;
20181;SDS011;10250;50.756;6.172;2023-09-18T03:12:49;14.87;;;2.80;;
20181;SDS011;10250;50.756;6.172;2023-09-18T03:14:49;11.67;;;2.77;;
20181;SDS011;10250;50.756;6.172;2023-09-18T03:16:51;12.23;;;2.57;;
20181;SDS011;10250;50.756;6.172;2023-09-18T03:18:51;12.67;;;2.90;;
20181;SDS011;10250;50.756;6.172;2023-09-18T03:20:52;12.50;;;2.70;;
20181;SDS011;10250;50.756;6.172;2023-09-18T03:22:59;11.80;;;2.50;;
20181;SDS011;10250;50.756;6.172;2023-09-18T03:25:01;11.90;;;2.73;;
20181;SDS011;10250;50.756;6.172;2023-09-18T03:27:02;11.60;;;2.30;;
20181;SDS011;10250;50.756;6.172;2023-09-18T03:29:03;10.37;;;2.50;;
20181;SDS011;10250;50.756;6.172;2023-09-18T03:31:04;14.03;;;2.60;;
20181;SDS011;10250;50.756;6.172;2023-09-18T03:33:06;12.60;;;2.70;;
20181;SDS011;10250;50.756;6.172;2023-09-18T03:35:07;10.67;;;2.40;;
20181;SDS011;10250;50.756;6.172;2023-09-18T03:37:15;11.90;;;2.40;;
20181;SDS011;10250;50.756;6.172;2023-09-18T03:39:15;11.70;;;2.70;;
20181;SDS011;10250;50.756;6.172;2023-09-18T03:41:16;10.23;;;2.10;;
20181;SDS011;10250;50.756;6.172;2023-09-18T03:43:17;9.93;;;2.20;;
20181;SDS011;10250;50.756;6.172;2023-09-18T03:45:17;11.70;;;2.90;;
20181;SDS011;10250;50.756;6.172;2023-09-18T03:47:19;11.30;;;2.10;;
20181;SDS011;10250;50.756;6.172;2023-09-18T03:49:20;10.83;;;2.20;;
20181;SDS011;10250;50.756;6.172;2023-09-18T03:51:20;7.73;;;1.90;;
20181;SDS011;10250;50.756;6.172;2023-09-18T03:53:21;11.70;;;2.40;;
20181;SDS011;10250;50.756;6.172;2023-09-18T03:55:22;9.77;;;1.87;;
20181;SDS011;10250;50.756;6.172;2023-09-18T03:57:22;7.87;;;1.80;;
20181;SDS011;10250;50.756;6.172;2023-09-18T03:59:23;8.37;;;1.90;;
20181;SDS011;10250;50.756;6.172;2023-09-18T04:01:24;7.80;;;1.63;;
20181;SDS011;10250;50.756;6.172;2023-09-18T04:03:24;8.10;;;1.80;;
20181;SDS011;10250;50.756;6.172;2023-09-18T04:05:25;6.53;;;1.60;;
20181;SDS011;10250;50.756;6.172;2023-09-18T04:07:25;6.03;;;1.43;;
20181;SDS011;10250;50.756;6.172;2023-09-18T04:09:26;7.23;;;1.47;;
20181;SDS011;10250;50.756;6.172;2023-09-18T04:11:27;6.93;;;1.50;;
20181;SDS011;10250;50.756;6.172;2023-09-18T04:13:28;4.97;;;1.60;;
20181;SDS011;10250;50.756;6.172;2023-09-18T04:15:29;7.60;;;1.60;;
20181;SDS011;10250;50.756;6.172;2023-09-18T04:17:32;7.47;;;1.77;;
20181;SDS011;10250;50.756;6.172;2023-09-18T04:19:33;8.07;;;1.97;;
20181;SDS011;10250;50.756;6.172;2023-09-18T04:21:33;6.03;;;1.27;;
20181;SDS011;10250;50.756;6.172;2023-09-18T04:23:34;5.07;;;1.43;;
20181;SDS011;10250;50.756;6.172;2023-09-18T04:25:36;4.60;;;1.40;;
20181;SDS011;10250;50.756;6.172;2023-09-18T04:27:37;11.07;;;1.70;;
20181;SDS011;10250;50.756;6.172;2023-09-18T04:29:37;6.20;;;1.70;;
20181;SDS011;10250;50.756;6.172;2023-09-18T04:31:38;6.90;;;1.50;;
20181;SDS011;10250;50.756;6.172;2023-09-18T04:33:38;9.17;;;1.50;;
20181;SDS011;10250;50.756;6.172;2023-09-18T04:35:39;4.73;;;1.50;;
20181;SDS011;10250;50.756;6.172;2023-09-18T04:37:40;6.27;;;1.50;;
20181;SDS011;10250;50.756;6.172;2023-09-18T04:39:41;6.30;;;1.53;;
20181;SDS011;10250;50.756;6.172;2023-09-18T04:41:41;8.17;;;1.80;;
20181;SDS011;10250;50.756;6.172;2023-09-18T04:43:42;5.53;;;1.40;;
20181;SDS011;10250;50.756;6.172;2023-09-18T04:45:44;7.33;;;1.57;;
20181;SDS011;10250;50.756;6.172;2023-09-18T04:47:44;6.43;;;1.50;;
20181;SDS011;10250;50.756;6.172;2023-09-18T04:49:45;8.43;;;1.50;;
20181;SDS011;10250;50.756;6.172;2023-09-18T04:51:47;11.40;;;2.30;;
20181;SDS011;10250;50.756;6.172;2023-09-18T04:53:48;5.50;;;1.60;;
20181;SDS011;10250;50.756;6.172;2023-09-18T04:55:48;5.33;;;1.43;;
20181;SDS011;10250;50.756;6.172;2023-09-18T04:57:52;8.20;;;1.60;;
20181;SDS011;10250;50.756;6.172;2023-09-18T04:59:53;6.00;;;1.57;;
20181;SDS011;10250;50.756;6.172;2023-09-18T05:01:53;7.90;;;1.93;;
20181;SDS011;10250;50.756;6.172;2023-09-18T05:03:54;5.37;;;1.53;;
20181;SDS011;10250;50.756;6.172;2023-09-18T05:05:54;7.83;;;1.80;;
20181;SDS011;10250;50.756;6.172;2023-09-18T05:07:55;6.10;;;1.70;;
20181;SDS011;10250;50.756;6.172;2023-09-18T05:09:56;5.60;;;1.60;;
20181;SDS011;10250;50.756;6.172;2023-09-18T05:11:56;8.50;;;1.80;;
20181;SDS011;10250;50.756;6.172;2023-09-18T05:13:58;7.33;;;1.80;;
20181;SDS011;10250;50.756;6.172;2023-09-18T05:15:58;9.30;;;1.80;;
20181;SDS011;10250;50.756;6.172;2023-09-18T05:18:00;5.37;;;1.77;;
20181;SDS011;10250;50.756;6.172;2023-09-18T05:20:03;6.10;;;1.90;;
20181;SDS011;10250;50.756;6.172;2023-09-18T05:22:05;8.53;;;1.80;;
20181;SDS011;10250;50.756;6.172;2023-09-18T05:24:05;6.20;;;1.67;;
20181;SDS011;10250;50.756;6.172;2023-09-18T05:26:06;6.70;;;1.77;;
20181;SDS011;10250;50.756;6.172;2023-09-18T05:28:06;7.43;;;1.50;;
20181;SDS011;10250;50.756;6.172;2023-09-18T05:30:07;8.50;;;1.93;;
20181;SDS011;10250;50.756;6.172;2023-09-18T05:32:08;8.87;;;1.80;;
20181;SDS011;10250;50.756;6.172;2023-09-18T05:34:09;7.70;;;1.63;;
20181;SDS011;10250;50.756;6.172;2023-09-18T05:36:09;7.23;;;1.60;;
20181;SDS011;10250;50.756;6.172;2023-09-18T05:38:10;5.23;;;1.50;;
20181;SDS011;10250;50.756;6.172;2023-09-18T05:40:13;8.60;;;1.83;;
20181;SDS011;10250;50.756;6.172;2023-09-18T05:42:14;8.40;;;1.83;;
20181;SDS011;10250;50.756;6.172;2023-09-18T05:44:14;7.23;;;1.60;;
20181;SDS011;10250;50.756;6.172;2023-09-18T05:46:15;7.90;;;1.50;;
20181;SDS011;10250;50.756;6.172;2023-09-18T05:48:15;5.97;;;1.50;;
20181;SDS011;10250;50.756;6.172;2023-09-18T05:50:16;6.40;;;1.40;;
20181;SDS011;10250;50.756;6.172;2023-09-18T05:52:17;7.43;;;1.67;;
20181;SDS011;10250;50.756;6.172;2023-09-18T05:54:17;4.83;;;1.23;;
20181;SDS011;10250;50.756;6.172;2023-09-18T05:56:18;8.30;;;1.50;;
20181;SDS011;10250;50.756;6.172;2023-09-18T05:58:19;9.07;;;1.60;;
20181;SDS011;10250;50.756;6.172;2023-09-18T06:00:24;6.10;;;1.53;;
20181;SDS011;10250;50.756;6.172;2023-09-18T06:02:25;6.77;;;1.37;;
20181;SDS011;10250;50.756;6.172;2023-09-18T06:04:26;9.10;;;1.70;;
20181;SDS011;10250;50.756;6.172;2023-09-18T06:06:27;6.07;;;1.60;;
20181;SDS011;10250;50.756;6.172;2023-09-18T06:08:28;5.80;;;1.33;;
20181;SDS011;10250;50.756;6.172;2023-09-18T06:10:30;6.73;;;1.63;;
20181;SDS011;10250;50.756;6.172;2023-09-18T06:12:30;6.57;;;1.57;;
20181;SDS011;10250;50.756;6.172;2023-09-18T06:14:31;7.40;;;1.70;;
20181;SDS011;10250;50.756;6.172;2023-09-18T06:16:34;5.33;;;1.30;;
20181;SDS011;10250;50.756;6.172;2023-09-18T06:18:35;12.07;;;1.60;;
20181;SDS011;10250;50.756;6.172;2023-09-18T06:20:38;10.70;;;1.80;;
20181;SDS011;10250;50.756;6.172;2023-09-18T06:22:39;7.87;;;1.50;;
20181;SDS011;10250;50.756;6.172;2023-09-18T06:24:40;6.60;;;1.40;;
20181;SDS011;10250;50.756;6.172;2023-09-18T06:26:41;6.90;;;1.63;;
20181;SDS011;10250;50.756;6.172;2023-09-18T06:28:41;8.93;;;1.63;;
20181;SDS011;10250;50.756;6.172;2023-09-18T06:30:42;8.07;;;1.50;;
20181;SDS011;10250;50.756;6.172;2023-09-18T06:32:42;8.20;;;1.50;;
20181;SDS011;10250;50.756;6.172;2023-09-18T06:34:44;6.07;;;1.53;;
20181;SDS011;10250;50.756;6.172;2023-09-18T06:36:47;6.17;;;1.50;;
20181;SDS011;10250;50.756;6.172;2023-09-18T06:38:47;7.83;;;1.90;;
20181;SDS011;10250;50.756;6.172;2023-09-18T06:40:48;10.83;;;2.03;;
20181;SDS011;10250;50.756;6.172;2023-09-18T06:42:50;10.07;;;1.70;;
20181;SDS011;10250;50.756;6.172;2023-09-18T06:44:52;5.90;;;1.53;;
20181;SDS011;10250;50.756;6.172;2023-09-18T06:46:53;4.37;;;1.40;;
20181;SDS011;10250;50.756;6.172;2023-09-18T06:48:54;8.17;;;1.57;;
20181;SDS011;10250;50.756;6.172;2023-09-18T06:50:54;6.50;;;1.67;;
20181;SDS011;10250;50.756;6.172;2023-09-18T06:52:55;7.00;;;1.70;;
20181;SDS011;10250;50.756;6.172;2023-09-18T06:54:56;9.37;;;1.50;;
20181;SDS011;10250;50.756;6.172;2023-09-18T06:56:57;4.97;;;1.30;;
20181;SDS011;10250;50.756;6.172;2023-09-18T06:58:58;6.60;;;1.73;;
20181;SDS011;10250;50.756;6.172;2023-09-18T07:00:59;7.90;;;1.50;;
20181;SDS011;10250;50.756;6.172;2023-09-18T07:02:59;8.00;;;1.80;;
20181;SDS011;10250;50.756;6.172;2023-09-18T07:05:00;7.40;;;1.53;;
20181;SDS011;10250;50.756;6.172;2023-09-18T07:07:00;8.30;;;1.60;;
20181;SDS011;10250;50.756;6.172;2023-09-18T07:09:01;7.80;;;1.70;;
20181;SDS011;10250;50.756;6.172;2023-09-18T07:11:04;4.90;;;1.43;;
20181;SDS011;10250;50.756;6.172;2023-09-18T07:13:05;5.73;;;1.40;;
20181;SDS011;10250;50.756;6.172;2023-09-18T07:15:06;7.50;;;1.80;;
20181;SDS011;10250;50.756;6.172;2023-09-18T07:17:07;8.10;;;1.60;;
20181;SDS011;10250;50.756;6.172;2023-09-18T07:19:07;4.87;;;1.63;;
20181;SDS011;10250;50.756;6.172;2023-09-18T07:21:11;10.07;;;1.63;;
20181;SDS011;10250;50.756;6.172;2023-09-18T07:23:12;8.90;;;1.40;;
20181;SDS011;10250;50.756;6.172;2023-09-18T07:25:13;6.17;;;1.40;;
20181;SDS011;10250;50.756;6.172;2023-09-18T07:27:14;6.13;;;1.43;;
20181;SDS011;10250;50.756;6.172;2023-09-18T07:29:15;7.07;;;1.73;;
20181;SDS011;10250;50.756;6.172;2023-09-18T07:31:16;6.33;;;1.57;;
20181;SDS011;10250;50.756;6.172;2023-09-18T07:33:17;7.23;;;1.50;;
20181;SDS011;10250;50.756;6.172;2023-09-18T07:35:20;8.17;;;1.70;;
20181;SDS011;10250;50.756;6.172;2023-09-18T07:37:20;7.70;;;1.90;;
20181;SDS011;10250;50.756;6.172;2023-09-18T07:39:21;5.97;;;1.50;;
20181;SDS011;10250;50.756;6.172;2023-09-18T07:41:22;8.57;;;1.70;;
20181;SDS011;10250;50.756;6.172;2023-09-18T07:43:24;7.13;;;1.80;;
20181;SDS011;10250;50.756;6.172;2023-09-18T07:45:25;7.83;;;1.63;;
20181;SDS011;10250;50.756;6.172;2023-09-18T07:47:25;5.57;;;1.50;;
20181;SDS011;10250;50.756;6.172;2023-09-18T07:49:26;7.03;;;1.77;;
20181;SDS011;10250;50.756;6.172;2023-09-18T07:51:27;4.57;;;1.40;;
20181;SDS011;10250;50.756;6.172;2023-09-18T07:53:27;7.30;;;1.67;;
20181;SDS011;10250;50.756;6.172;2023-09-18T07:55:28;8.33;;;1.80;;
20181;SDS011;10250;50.756;6.172;2023-09-18T07:57:29;6.33;;;1.47;;
20181;SDS011;10250;50.756;6.172;2023-09-18T07:59:32;4.77;;;1.43;;
20181;SDS011;10250;50.756;6.172;2023-09-18T08:01:32;8.30;;;1.90;;
20181;SDS011;10250;50.756;6.172;2023-09-18T08:03:33;7.30;;;1.60;;
20181;SDS011;10250;50.756;6.172;2023-09-18T08:05:33;6.57;;;1.60;;
20181;SDS011;10250;50.756;6.172;2023-09-18T08:07:35;7.63;;;1.50;;
20181;SDS011;10250;50.756;6.172;2023-09-18T08:09:36;5.33;;;1.40;;
20181;SDS011;10250;50.756;6.172;2023-09-18T08:11:37;4.60;;;1.40;;
20181;SDS011;10250;50.756;6.172;2023-09-18T08:13:41;7.80;;;1.60;;
20181;SDS011;10250;50.756;6.172;2023-09-18T08:15:42;5.77;;;1.73;;
20181;SDS011;10250;50.756;6.172;2023-09-18T08:17:43;7.50;;;1.60;;
20181;SDS011;10250;50.756;6.172;2023-09-18T08:19:44;3.93;;;1.23;;
20181;SDS011;10250;50.756;6.172;2023-09-18T08:21:44;9.87;;;1.90;;
20181;SDS011;10250;50.756;6.172;2023-09-18T08:23:46;3.53;;;1.30;;
20181;SDS011;10250;50.756;6.172;2023-09-18T08:25:46;5.40;;;1.60;;
20181;SDS011;10250;50.756;6.172;2023-09-18T08:27:47;11.60;;;1.80;;
20181;SDS011;10250;50.756;6.172;2023-09-18T08:29:48;6.33;;;1.50;;
20181;SDS011;10250;50.756;6.172;2023-09-18T08:31:49;6.80;;;1.90;;
20181;SDS011;10250;50.756;6.172;2023-09-18T08:33:50;7.00;;;1.97;;
20181;SDS011;10250;50.756;6.172;2023-09-18T08:35:51;4.60;;;1.50;;
20181;SDS011;10250;50.756;6.172;2023-09-18T08:37:51;7.27;;;1.50;;
20181;SDS011;10250;50.756;6.172;2023-09-18T08:39:52;5.77;;;1.50;;
20181;SDS011;10250;50.756;6.172;2023-09-18T08:41:54;4.90;;;1.50;;
20181;SDS011;10250;50.756;6.172;2023-09-18T08:44:01;7.37;;;1.57;;
20181;SDS011;10250;50.756;6.172;2023-09-18T08:46:03;8.33;;;1.70;;
20181;SDS011;10250;50.756;6.172;2023-09-18T08:48:05;4.73;;;1.37;;
20181;SDS011;10250;50.756;6.172;2023-09-18T08:50:06;5.70;;;1.27;;
20181;SDS011;10250;50.756;6.172;2023-09-18T08:52:10;5.27;;;1.60;;
20181;SDS011;10250;50.756;6.172;2023-09-18T08:54:12;6.27;;;1.50;;
20181;SDS011;10250;50.756;6.172;2023-09-18T08:56:13;3.93;;;1.50;;
20181;SDS011;10250;50.756;6.172;2023-09-18T08:58:15;8.83;;;1.80;;
20181;SDS011;10250;50.756;6.172;2023-09-18T09:00:19;5.70;;;1.57;;
20181;SDS011;10250;50.756;6.172;2023-09-18T09:02:20;8.40;;;1.60;;
20181;SDS011;10250;50.756;6.172;2023-09-18T09:04:20;6.10;;;1.67;;
20181;SDS011;10250;50.756;6.172;2023-09-18T09:06:21;7.30;;;1.57;;
20181;SDS011;10250;50.756;6.172;2023-09-18T09:08:22;7.60;;;1.63;;
20181;SDS011;10250;50.756;6.172;2023-09-18T09:10:22;6.47;;;1.70;;
20181;SDS011;10250;50.756;6.172;2023-09-18T09:15:01;6.73;;;1.57;;
20181;SDS011;10250;50.756;6.172;2023-09-18T09:17:03;8.43;;;2.00;;
20181;SDS011;10250;50.756;6.172;2023-09-18T09:19:04;6.53;;;1.80;;
20181;SDS011;10250;50.756;6.172;2023-09-18T09:21:05;7.63;;;1.67;;
20181;SDS011;10250;50.756;6.172;2023-09-18T09:23:09;7.57;;;1.77;;
20181;SDS011;10250;50.756;6.172;2023-09-18T09:27:21;4.77;;;1.57;;
20181;SDS011;10250;50.756;6.172;2023-09-18T09:29:22;8.97;;;2.00;;
20181;SDS011;10250;50.756;6.172;2023-09-18T09:31:26;6.97;;;1.60;;
20181;SDS011;10250;50.756;6.172;2023-09-18T09:33:30;6.60;;;1.90;;
20181;SDS011;10250;50.756;6.172;2023-09-18T09:35:33;6.20;;;1.57;;
20181;SDS011;10250;50.756;6.172;2023-09-18T09:37:35;5.67;;;1.70;;
20181;SDS011;10250;50.756;6.172;2023-09-18T09:39:48;5.90;;;1.60;;
20181;SDS011;10250;50.756;6.172;2023-09-18T09:41:52;8.93;;;1.90;;
20181;SDS011;10250;50.756;6.172;2023-09-18T09:43:53;6.33;;;1.63;;
20181;SDS011;10250;50.756;6.172;2023-09-18T09:45:59;6.67;;;1.80;;
20181;SDS011;10250;50.756;6.172;2023-09-18T09:48:04;5.67;;;1.73;;
20181;SDS011;10250;50.756;6.172;2023-09-18T09:50:07;7.80;;;1.80;;
20181;SDS011;10250;50.756;6.172;2023-09-18T09:52:17;7.57;;;1.90;;
20181;SDS011;10250;50.756;6.172;2023-09-18T09:54:33;7.40;;;1.73;;
20181;SDS011;10250;50.756;6.172;2023-09-18T09:58:43;8.50;;;1.80;;
20181;SDS011;10250;50.756;6.172;2023-09-18T10:00:49;5.10;;;1.63;;
20181;SDS011;10250;50.756;6.172;2023-09-18T10:02:54;4.70;;;1.50;;
20181;SDS011;10250;50.756;6.172;2023-09-18T10:04:58;5.57;;;1.50;;
20181;SDS011;10250;50.756;6.172;2023-09-18T10:07:01;6.03;;;1.57;;
20181;SDS011;10250;50.756;6.172;2023-09-18T10:09:08;6.37;;;1.77;;
20181;SDS011;10250;50.756;6.172;2023-09-18T10:11:13;6.50;;;1.70;;
20181;SDS011;10250;50.756;6.172;2023-09-18T10:15:21;6.03;;;1.47;;
20181;SDS011;10250;50.756;6.172;2023-09-18T10:17:23;9.83;;;1.80;;
20181;SDS011;10250;50.756;6.172;2023-09-18T10:19:39;8.73;;;2.00;;
20181;SDS011;10250;50.756;6.172;2023-09-18T10:24:24;5.93;;;1.53;;
20181;SDS011;10250;50.756;6.172;2023-09-18T10:26:29;5.67;;;1.60;;
20181;SDS011;10250;50.756;6.172;2023-09-18T10:28:33;6.43;;;1.50;;
20181;SDS011;10250;50.756;6.172;2023-09-18T10:30:34;8.47;;;1.93;;
20181;SDS011;10250;50.756;6.172;2023-09-18T10:32:38;7.23;;;1.70;;
20181;SDS011;10250;50.756;6.172;2023-09-18T10:34:40;7.47;;;1.77;;
20181;SDS011;10250;50.756;6.172;2023-09-18T10:36:43;6.40;;;1.77;;
20181;SDS011;10250;50.756;6.172;2023-09-18T10:38:48;5.70;;;1.70;;
20181;SDS011;10250;50.756;6.172;2023-09-18T10:40:51;8.40;;;1.90;;
20181;SDS011;10250;50.756;6.172;2023-09-18T10:42:54;6.87;;;1.80;;
20181;SDS011;10250;50.756;6.172;2023-09-18T10:44:57;6.23;;;1.77;;
20181;SDS011;10250;50.756;6.172;2023-09-18T10:46:58;7.73;;;1.73;;
20181;SDS011;10250;50.756;6.172;2023-09-18T10:49:02;6.90;;;1.87;;
20181;SDS011;10250;50.756;6.172;2023-09-18T10:51:03;7.23;;;1.80;;
20181;SDS011;10250;50.756;6.172;2023-09-18T10:53:05;5.70;;;1.63;;
20181;SDS011;10250;50.756;6.172;2023-09-18T10:55:06;9.00;;;1.93;;
20181;SDS011;10250;50.756;6.172;2023-09-18T10:57:08;7.00;;;1.73;;
20181;SDS011;10250;50.756;6.172;2023-09-18T10:59:08;6.03;;;1.70;;
20181;SDS011;10250;50.756;6.172;2023-09-18T11:01:12;7.53;;;1.83;;
20181;SDS011;10250;50.756;6.172;2023-09-18T11:03:14;4.40;;;1.77;;
20181;SDS011;10250;50.756;6.172;2023-09-18T11:05:34;7.00;;;1.60;;
20181;SDS011;10250;50.756;6.172;2023-09-18T11:07:35;8.63;;;2.00;;
20181;SDS011;10250;50.756;6.172;2023-09-18T11:09:45;7.87;;;1.90;;
20181;SDS011;10250;50.756;6.172;2023-09-18T11:11:46;6.43;;;1.80;;
20181;SDS011;10250;50.756;6.172;2023-09-18T11:13:52;7.20;;;1.90;;
20181;SDS011;10250;50.756;6.172;2023-09-18T11:16:00;7.23;;;1.90;;
20181;SDS011;10250;50.756;6.172;2023-09-18T11:18:03;6.37;;;1.90;;
20181;SDS011;10250;50.756;6.172;2023-09-18T11:20:08;9.00;;;2.33;;
20181;SDS011;10250;50.756;6.172;2023-09-18T11:22:24;6.33;;;1.90;;
20181;SDS011;10250;50.756;6.172;2023-09-18T11:24:25;6.80;;;1.90;;
20181;SDS011;10250;50.756;6.172;2023-09-18T11:26:29;4.63;;;1.53;;
20181;SDS011;10250;50.756;6.172;2023-09-18T11:28:31;6.57;;;1.80;;
20181;SDS011;10250;50.756;6.172;2023-09-18T11:30:35;7.57;;;1.90;;
20181;SDS011;10250;50.756;6.172;2023-09-18T11:32:37;9.03;;;1.80;;
20181;SDS011;10250;50.756;6.172;2023-09-18T11:34:39;7.00;;;1.93;;
20181;SDS011;10250;50.756;6.172;2023-09-18T11:36:41;6.87;;;2.07;;
20181;SDS011;10250;50.756;6.172;2023-09-18T11:38:59;8.40;;;1.80;;
20181;SDS011;10250;50.756;6.172;2023-09-18T11:41:22;6.07;;;1.60;;
20181;SDS011;10250;50.756;6.172;2023-09-18T11:43:27;6.80;;;1.70;;
20181;SDS011;10250;50.756;6.172;2023-09-18T11:45:29;5.67;;;1.80;;
20181;SDS011;10250;50.756;6.172;2023-09-18T11:47:30;6.30;;;2.10;;
20181;SDS011;10250;50.756;6.172;2023-09-18T11:49:32;7.70;;;1.90;;
20181;SDS011;10250;50.756;6.172;2023-09-18T11:51:33;8.40;;;1.90;;
20181;SDS011;10250;50.756;6.172;2023-09-18T11:53:35;10.27;;;2.03;;
20181;SDS011;10250;50.756;6.172;2023-09-18T11:55:40;6.77;;;1.80;;
20181;SDS011;10250;50.756;6.172;2023-09-18T11:57:41;7.47;;;1.80;;
20181;SDS011;10250;50.756;6.172;2023-09-18T11:59:43;8.57;;;2.13;;
20181;SDS011;10250;50.756;6.172;2023-09-18T12:01:53;6.33;;;1.80;;
20181;SDS011;10250;50.756;6.172;2023-09-18T12:03:54;7.70;;;2.00;;
20181;SDS011;10250;50.756;6.172;2023-09-18T12:06:02;5.60;;;1.57;;
20181;SDS011;10250;50.756;6.172;2023-09-18T12:08:05;7.77;;;1.87;;
20181;SDS011;10250;50.756;6.172;2023-09-18T12:10:07;8.10;;;1.70;;
20181;SDS011;10250;50.756;6.172;2023-09-18T12:12:08;7.17;;;1.70;;
20181;SDS011;10250;50.756;6.172;2023-09-18T12:14:09;10.37;;;2.23;;
20181;SDS011;10250;50.756;6.172;2023-09-18T12:16:10;7.33;;;1.90;;
20181;SDS011;10250;50.756;6.172;2023-09-18T12:18:11;10.67;;;2.13;;
20181;SDS011;10250;50.756;6.172;2023-09-18T12:20:15;5.90;;;1.60;;
20181;SDS011;10250;50.756;6.172;2023-09-18T12:22:23;8.67;;;1.77;;
20181;SDS011;10250;50.756;6.172;2023-09-18T12:24:27;7.03;;;1.87;;